createdAt,value
2023-03-06T00:01:00.363Z,19.43
2023-03-06T00:03:28.292Z,22.03
2023-03-06T00:05:57.936Z,18.63
2023-03-06T00:10:52.651Z,21.07
2023-03-06T00:13:20.214Z,20.00
2023-03-06T00:15:47.905Z,21.80
2023-03-06T00:18:15.807Z,19.07
2023-03-06T00:20:44.117Z,22.13
2023-03-06T01:43:30.308Z,19.90
2023-03-06T01:46:25.065Z,21.33
2023-03-06T01:49:25.840Z,19.40
2023-03-06T01:51:55.109Z,17.27
2023-03-06T01:54:26.524Z,19.65
2023-03-06T01:57:00.304Z,18.03
2023-03-06T01:59:29.568Z,18.53
2023-03-06T02:02:01.852Z,20.23
2023-03-06T05:49:08.288Z,23.37
2023-03-06T05:51:35.652Z,24.13
2023-03-06T05:54:03.624Z,30.27
2023-03-06T05:56:30.598Z,32.23
2023-03-06T05:58:57.640Z,26.00
2023-03-06T06:01:25.572Z,24.77
2023-03-06T06:03:52.604Z,21.33
2023-03-06T06:06:19.419Z,24.33
2023-03-06T06:08:46.324Z,23.03
2023-03-06T06:11:14.016Z,25.13
2023-03-06T06:13:45.444Z,23.03
2023-03-06T06:16:16.575Z,24.10
2023-03-06T06:18:43.829Z,21.87
2023-03-06T06:21:14.651Z,22.17
2023-03-06T06:23:42.142Z,22.60
2023-03-06T06:26:10.667Z,24.93
2023-03-06T06:28:37.649Z,23.40
2023-03-06T06:31:09.973Z,19.63
2023-03-06T06:33:36.815Z,21.57
2023-03-06T06:36:04.231Z,22.07
2023-03-06T06:38:31.099Z,26.70
2023-03-06T06:41:30.768Z,22.30
2023-03-06T06:43:44.868Z,21.23
2023-03-06T06:46:41.889Z,25.43
2023-03-06T06:49:00.268Z,25.57
2023-03-06T06:51:27.232Z,20.63
2023-03-06T06:53:56.647Z,33.43
2023-03-06T06:56:23.542Z,93.15
2023-03-06T06:58:53.803Z,87.17
2023-03-06T07:01:22.518Z,74.97
2023-03-06T07:03:49.447Z,27.57
2023-03-06T07:06:16.647Z,23.77
2023-03-06T07:27:37.180Z,25.57
2023-03-06T07:30:05.361Z,24.33
2023-03-06T07:32:32.763Z,22.43
2023-03-06T07:35:18.755Z,20.13
2023-03-06T07:37:46.529Z,20.80
2023-03-06T07:40:13.359Z,17.63
2023-03-06T07:42:40.241Z,22.87
2023-03-06T07:45:12.899Z,18.60
2023-03-06T07:47:40.720Z,27.60
2023-03-06T07:50:08.024Z,24.27
2023-03-06T07:52:36.228Z,18.80
2023-03-06T07:55:04.256Z,16.67
2023-03-06T07:57:31.301Z,16.70
2023-03-06T07:59:58.297Z,19.43
2023-03-06T08:02:25.314Z,19.13
2023-03-06T08:04:56.534Z,19.77
2023-03-06T08:07:23.732Z,20.00
2023-03-06T08:09:51.645Z,20.40
2023-03-06T08:12:18.632Z,19.07
2023-03-06T08:14:45.620Z,24.27
2023-03-06T08:17:12.677Z,19.60
2023-03-06T08:19:39.591Z,19.00
2023-03-06T08:22:07.036Z,17.40
2023-03-06T08:24:34.781Z,24.43
2023-03-06T08:27:02.483Z,20.33
2023-03-06T08:29:32.304Z,17.80
2023-03-06T08:31:59.150Z,20.00
2023-03-06T08:34:26.071Z,19.03
2023-03-06T08:36:53.652Z,16.40
2023-03-06T08:39:23.779Z,17.37
2023-03-06T08:41:50.992Z,17.00
2023-03-06T08:44:17.995Z,15.10
2023-03-06T08:46:46.190Z,15.97
2023-03-06T08:49:14.997Z,16.10
2023-03-06T08:51:43.389Z,16.30
2023-03-06T08:54:12.859Z,19.13
2023-03-06T08:59:06.789Z,18.03
2023-03-06T09:01:37.853Z,18.90
2023-03-06T09:04:08.349Z,14.20
2023-03-06T09:06:39.300Z,16.73
2023-03-06T09:09:07.468Z,16.40
2023-03-06T09:11:34.418Z,15.17
2023-03-06T09:14:01.725Z,15.63
2023-03-06T09:16:28.634Z,16.92
2023-03-06T09:18:55.620Z,12.93
2023-03-06T09:21:23.164Z,16.23
2023-03-06T09:23:51.971Z,17.45
2023-03-06T09:26:18.950Z,15.85
2023-03-06T09:28:46.718Z,17.17
2023-03-06T09:31:20.228Z,17.40
2023-03-06T09:33:47.837Z,16.00
2023-03-06T09:36:17.420Z,19.80
2023-03-06T09:38:45.999Z,18.15
2023-03-06T09:41:22.056Z,14.50
2023-03-06T09:43:51.932Z,18.10
2023-03-06T09:46:47.218Z,16.77
2023-03-06T09:49:48.111Z,18.17
2023-03-06T09:52:24.008Z,16.35
2023-03-06T09:54:57.368Z,19.73
2023-03-06T09:57:28.493Z,16.80
2023-03-06T10:00:02.837Z,17.52
2023-03-06T10:02:36.537Z,16.48
2023-03-06T10:05:07.284Z,17.98
2023-03-06T10:07:45.395Z,16.25
2023-03-06T10:10:19.640Z,23.15
2023-03-06T10:12:54.208Z,15.60
2023-03-06T10:15:32.354Z,18.70
2023-03-06T10:17:59.318Z,16.85
2023-03-06T10:20:28.024Z,17.38
2023-03-06T10:23:14.910Z,19.98
2023-03-06T10:26:02.055Z,17.42
2023-03-06T10:28:41.918Z,19.40
2023-03-06T10:31:20.802Z,18.08
2023-03-06T10:34:05.894Z,20.08
2023-03-06T10:36:32.759Z,18.02
2023-03-06T10:39:00.138Z,19.13
2023-03-06T10:41:32.903Z,19.67
2023-03-06T10:43:59.661Z,20.75
2023-03-06T10:46:38.570Z,17.38
2023-03-06T10:49:22.045Z,16.23
2023-03-06T10:51:58.869Z,19.67
2023-03-06T10:54:26.332Z,16.20
2023-03-06T10:56:53.195Z,17.05
2023-03-06T10:59:25.667Z,16.63
2023-03-06T11:01:55.421Z,18.75
2023-03-06T11:04:29.989Z,19.42
2023-03-06T11:07:06.122Z,18.58
2023-03-06T11:09:35.861Z,20.30
2023-03-06T11:12:23.096Z,14.75
2023-03-06T11:15:29.871Z,17.77
2023-03-06T11:18:04.560Z,17.83
2023-03-06T11:20:52.463Z,22.55
2023-03-06T11:23:54.929Z,19.35
2023-03-06T11:26:37.377Z,15.98
2023-03-06T11:29:22.994Z,19.08
2023-03-06T11:32:15.122Z,21.20
2023-03-06T11:34:47.679Z,15.02
2023-03-06T11:37:40.112Z,16.27
2023-03-06T11:41:04.808Z,14.23
2023-03-06T11:43:56.031Z,16.85
2023-03-06T11:46:29.121Z,15.82
2023-03-06T11:49:15.646Z,16.35
2023-03-06T11:51:53.301Z,16.08
2023-03-06T11:54:20.336Z,14.77
2023-03-06T11:56:58.442Z,16.80
2023-03-06T11:59:40.135Z,17.15
2023-03-06T12:02:22.200Z,15.55
2023-03-06T12:04:56.614Z,14.90
2023-03-06T12:07:33.204Z,15.30
2023-03-06T12:10:27.942Z,16.02
2023-03-06T12:16:13.519Z,16.42
2023-03-06T12:18:52.614Z,14.45
2023-03-06T12:21:56.545Z,8.48
2023-03-06T12:25:01.026Z,5.43
2023-03-06T12:28:09.263Z,7.78
2023-03-06T12:31:13.049Z,8.63
2023-03-06T12:33:52.119Z,6.82
2023-03-06T12:36:34.419Z,6.22
2023-03-06T12:39:10.732Z,4.82
2023-03-06T12:42:06.757Z,6.32
2023-03-06T12:44:56.717Z,5.95
2023-03-06T12:47:28.134Z,7.28
2023-03-06T12:50:01.347Z,5.95
2023-03-06T12:52:31.580Z,5.68
2023-03-06T12:55:05.985Z,6.90
2023-03-06T12:57:33.213Z,5.78
2023-03-06T13:00:00.614Z,8.63
2023-03-06T13:02:39.899Z,5.95
2023-03-06T13:07:58.397Z,5.20
2023-03-06T13:10:31.340Z,6.68
2023-03-06T13:13:01.999Z,4.60
2023-03-06T13:15:41.181Z,3.58
2023-03-06T13:18:24.807Z,3.63
2023-03-06T13:20:53.989Z,6.53
2023-03-06T13:23:29.896Z,4.38
2023-03-06T13:25:59.175Z,5.32
2023-03-06T13:30:53.434Z,4.57
2023-03-06T13:33:30.212Z,6.07
2023-03-06T13:36:17.909Z,5.85
2023-03-06T13:38:45.291Z,4.03
2023-03-06T13:41:21.252Z,4.70
2023-03-06T13:43:50.562Z,3.08
2023-03-06T13:49:08.967Z,3.42
2023-03-06T13:51:38.149Z,7.05
2023-03-06T13:54:24.333Z,3.55
2023-03-06T13:56:56.912Z,3.13
2023-03-06T14:00:08.079Z,3.40
2023-03-06T14:02:55.168Z,6.00
2023-03-06T14:05:23.081Z,3.53
2023-03-06T14:08:14.711Z,2.65
2023-03-06T14:10:43.647Z,3.35
2023-03-06T14:13:22.317Z,7.85
2023-03-06T14:15:54.509Z,3.25
2023-03-06T14:18:50.704Z,2.40
2023-03-06T14:21:45.776Z,2.63
2023-03-06T14:24:17.458Z,4.10
2023-03-06T14:26:48.855Z,3.83
2023-03-06T14:29:27.136Z,1.90
2023-03-06T14:31:56.893Z,4.60
2023-03-06T14:34:28.233Z,3.42
2023-03-06T14:36:56.826Z,4.22
2023-03-06T14:39:38.372Z,2.60
2023-03-06T14:42:26.689Z,3.63
2023-03-06T14:45:16.375Z,2.27
2023-03-06T14:47:44.154Z,3.13
2023-03-06T14:50:34.243Z,3.83
2023-03-06T14:53:15.007Z,4.40
2023-03-06T14:55:50.851Z,4.47
2023-03-06T14:58:22.064Z,5.03
2023-03-06T15:00:54.742Z,4.60
2023-03-06T15:03:43.261Z,3.22
2023-03-06T15:06:16.938Z,2.67
2023-03-06T15:08:47.886Z,3.22
2023-03-06T15:11:15.206Z,6.82
2023-03-06T15:13:42.088Z,2.85
2023-03-06T15:16:15.063Z,3.22
2023-03-06T15:18:54.968Z,3.45
2023-03-06T15:21:24.087Z,2.60
2023-03-06T15:23:53.818Z,3.03
2023-03-06T15:26:20.836Z,2.63
2023-03-06T15:29:15.241Z,5.13
2023-03-06T15:31:46.888Z,5.55
2023-03-06T15:34:19.008Z,3.13
2023-03-06T15:36:49.604Z,4.18
2023-03-06T15:39:38.949Z,6.28
2023-03-06T15:42:23.605Z,5.45
2023-03-06T15:45:03.160Z,4.50
2023-03-06T15:47:30.145Z,7.05
2023-03-06T15:49:57.452Z,6.80
2023-03-06T15:52:24.405Z,5.97
2023-03-06T15:54:51.265Z,6.97
2023-03-06T15:57:29.459Z,6.60
2023-03-06T15:59:57.888Z,5.80
2023-03-06T16:02:24.959Z,6.10
2023-03-06T16:04:52.664Z,7.15
2023-03-06T16:07:20.827Z,8.60
2023-03-06T16:09:47.967Z,12.15
2023-03-06T16:12:19.208Z,6.05
2023-03-06T16:14:47.851Z,7.45
2023-03-06T16:17:16.768Z,8.50
2023-03-06T16:19:44.069Z,10.10
2023-03-06T16:22:14.623Z,6.70
2023-03-06T16:24:41.968Z,6.07
2023-03-06T16:27:17.783Z,10.18
2023-03-06T16:29:44.782Z,9.10
2023-03-06T16:32:11.914Z,6.22
2023-03-06T16:34:38.842Z,9.80
2023-03-06T16:37:09.269Z,5.70
2023-03-06T16:39:36.840Z,8.18
2023-03-06T16:42:04.013Z,5.85
2023-03-06T16:44:31.332Z,6.43
2023-03-06T16:47:00.893Z,8.20
2023-03-06T16:49:28.957Z,4.82
2023-03-06T16:51:57.202Z,5.45
2023-03-06T16:54:26.360Z,4.38
2023-03-06T16:56:53.564Z,6.10
2023-03-06T16:59:20.698Z,5.05
2023-03-06T17:01:47.931Z,6.40
2023-03-06T17:04:14.865Z,4.72
2023-03-06T17:06:43.641Z,5.95
2023-03-06T17:09:14.577Z,5.53
2023-03-06T17:11:43.583Z,6.35
2023-03-06T17:14:10.508Z,5.57
2023-03-06T17:16:40.552Z,4.25
2023-03-06T17:19:07.916Z,5.07
2023-03-06T17:21:37.203Z,7.72
2023-03-06T17:24:05.001Z,6.88
2023-03-06T17:26:32.256Z,5.97
2023-03-06T17:29:00.248Z,7.20
2023-03-06T17:31:28.822Z,9.15
2023-03-06T17:34:00.430Z,7.75
2023-03-06T17:36:30.108Z,8.38
2023-03-06T17:38:58.828Z,6.13
2023-03-06T17:41:26.453Z,5.13
2023-03-06T17:43:56.138Z,3.70
2023-03-06T17:46:23.244Z,5.93
2023-03-06T17:48:50.345Z,4.73
2023-03-06T17:51:17.398Z,6.67
2023-03-06T17:53:44.366Z,6.50
2023-03-06T17:56:13.671Z,5.43
2023-03-06T17:58:41.214Z,8.43
2023-03-06T18:01:13.441Z,9.17
2023-03-06T18:03:44.732Z,8.60
2023-03-06T18:06:13.013Z,10.68
2023-03-06T18:08:43.465Z,11.63
2023-03-06T18:11:11.489Z,11.63
2023-03-06T18:13:40.704Z,11.57
2023-03-06T18:16:08.881Z,10.30
2023-03-06T18:18:36.303Z,12.73
2023-03-06T18:21:08.325Z,8.17
2023-03-06T18:23:36.352Z,9.73
2023-03-06T18:26:21.689Z,12.07
2023-03-06T18:28:52.399Z,8.30
2023-03-06T18:31:24.541Z,12.57
2023-03-06T18:34:00.576Z,8.83
2023-03-06T18:36:30.989Z,8.67
2023-03-06T18:38:58.856Z,6.67
2023-03-06T18:41:25.736Z,6.47
2023-03-06T18:43:54.560Z,7.80
2023-03-06T18:46:25.813Z,6.10
2023-03-06T18:48:52.733Z,8.77
2023-03-06T18:51:20.361Z,8.50
2023-03-06T18:53:47.347Z,9.27
2023-03-06T18:56:21.235Z,8.97
2023-03-06T18:58:48.863Z,9.73
2023-03-06T19:01:15.952Z,8.30
2023-03-06T19:03:43.036Z,10.23
2023-03-06T19:06:12.822Z,8.23
2023-03-06T19:08:40.554Z,9.10
2023-03-06T19:11:12.827Z,8.53
2023-03-06T19:13:39.796Z,9.17
2023-03-06T19:16:08.515Z,9.17
2023-03-06T19:18:35.487Z,11.80
2023-03-06T19:21:14.466Z,9.40
2023-03-06T19:23:41.704Z,11.75
2023-03-06T19:26:09.364Z,8.33
2023-03-06T19:28:40.949Z,8.70
2023-03-06T19:31:14.338Z,8.70
2023-03-06T19:33:42.655Z,10.00
2023-03-06T19:36:12.312Z,8.00
2023-03-06T19:38:41.297Z,8.20
2023-03-06T19:41:13.518Z,6.13
2023-03-06T19:43:41.977Z,5.70
2023-03-06T19:46:15.286Z,7.10
2023-03-06T19:48:42.861Z,6.33
2023-03-06T19:51:10.875Z,6.27
2023-03-06T19:53:39.794Z,5.57
2023-03-06T19:56:29.337Z,6.15
2023-03-06T19:58:56.301Z,8.60
2023-03-06T20:01:25.322Z,8.10
2023-03-06T20:03:59.552Z,4.53
2023-03-06T20:06:30.191Z,7.70
2023-03-06T20:08:57.102Z,5.03
2023-03-06T20:11:26.476Z,4.63
2023-03-06T20:16:20.349Z,6.60
2023-03-06T20:18:47.320Z,6.07
2023-03-06T20:21:15.841Z,5.17
2023-03-06T20:23:43.465Z,3.73
2023-03-06T20:26:12.711Z,3.60
2023-03-06T20:28:41.433Z,6.50
2023-03-06T20:31:17.316Z,5.20
2023-03-06T20:33:45.196Z,4.77
2023-03-06T20:36:14.115Z,5.83
2023-03-06T20:38:41.264Z,7.38
2023-03-06T20:41:14.712Z,6.30
2023-03-06T20:43:41.634Z,6.53
2023-03-06T20:46:08.532Z,7.40
2023-03-06T20:48:35.448Z,4.30
2023-03-06T20:51:03.958Z,5.93
2023-03-06T20:53:31.305Z,6.30
2023-03-06T20:55:58.217Z,12.13
2023-03-06T20:58:28.974Z,18.03
2023-03-06T21:00:57.051Z,23.57
2023-03-06T21:03:24.725Z,20.07
2023-03-06T21:05:52.236Z,21.10
2023-03-06T21:08:19.230Z,18.90
2023-03-06T21:10:46.934Z,19.10
2023-03-06T21:13:14.438Z,20.93
2023-03-06T21:15:42.653Z,18.23
2023-03-06T21:18:10.664Z,24.30
2023-03-06T21:20:41.648Z,20.80
2023-03-06T21:23:09.749Z,20.90
2023-03-06T21:25:36.887Z,22.27
2023-03-06T21:28:03.720Z,36.87
2023-03-06T21:30:30.646Z,23.47
2023-03-06T21:32:57.509Z,30.67
2023-03-06T21:35:24.339Z,22.73
2023-03-06T21:37:51.198Z,23.07
2023-03-06T21:40:19.640Z,24.47
2023-03-06T21:42:46.588Z,20.00
2023-03-06T21:45:13.514Z,21.03
2023-03-06T21:47:41.147Z,18.53
2023-03-06T21:50:10.963Z,20.57
2023-03-06T21:52:37.905Z,19.27
2023-03-06T21:55:05.864Z,19.70
2023-03-06T21:57:32.879Z,21.93
2023-03-06T21:59:59.945Z,20.23
2023-03-06T22:02:26.990Z,19.17
2023-03-06T22:04:54.103Z,14.80
2023-03-06T22:07:21.431Z,13.87
2023-03-06T22:09:51.778Z,14.27
2023-03-06T22:12:18.637Z,14.20
2023-03-06T22:14:45.572Z,16.03
2023-03-06T22:17:12.400Z,14.13
2023-03-06T22:19:39.402Z,12.33
2023-03-06T22:22:06.312Z,14.67
2023-03-06T22:24:33.262Z,14.83
2023-03-06T22:27:00.100Z,12.87
2023-03-06T22:29:27.152Z,14.47
2023-03-06T22:31:54.061Z,13.73
2023-03-06T22:34:20.973Z,13.37
2023-03-06T22:36:48.480Z,14.53
2023-03-06T22:39:15.676Z,14.93
2023-03-06T22:41:42.520Z,13.40
2023-03-06T22:44:14.889Z,11.37
2023-03-06T22:46:42.031Z,12.30
2023-03-06T22:49:11.743Z,13.03
2023-03-06T22:51:38.787Z,11.27
2023-03-06T22:54:07.441Z,13.17
2023-03-06T22:56:34.576Z,12.50
2023-03-06T22:59:01.579Z,12.17
2023-03-06T23:01:31.021Z,12.87
2023-03-06T23:06:35.653Z,12.57
2023-03-06T23:09:22.575Z,11.37
2023-03-06T23:12:09.168Z,10.97
2023-03-06T23:14:54.982Z,8.70
2023-03-06T23:17:40.242Z,10.47
2023-03-06T23:20:25.867Z,11.90
2023-03-06T23:23:11.573Z,9.83
2023-03-06T23:25:41.645Z,9.50
2023-03-06T23:28:08.507Z,11.60
2023-03-06T23:30:35.459Z,9.23
2023-03-06T23:33:02.260Z,10.90
2023-03-06T23:35:29.096Z,8.77
2023-03-06T23:37:56.534Z,6.10
2023-03-06T23:40:23.499Z,8.87
2023-03-06T23:42:50.365Z,8.80
2023-03-06T23:45:17.327Z,8.77
2023-03-06T23:47:44.102Z,8.27
2023-03-06T23:50:11.761Z,9.17
2023-03-06T23:52:38.975Z,8.23
2023-03-06T23:55:06.969Z,8.73
2023-03-06T23:57:33.818Z,6.90
